sensor_id;sensor_type;location;lat;lon;timestamp;P1;durP1;ratioP1;P2;durP2;ratioP2
73023;SDS011;72676;47.526;8.538;2024-03-23T00:55:33;9.30;;;4.90;;
73023;SDS011;72676;47.526;8.538;2024-03-23T00:57:59;10.67;;;4.60;;
73023;SDS011;72676;47.526;8.538;2024-03-23T01:00:24;10.20;;;4.80;;
73023;SDS011;72676;47.526;8.538;2024-03-23T01:02:50;11.60;;;5.60;;
73023;SDS011;72676;47.526;8.538;2024-03-23T01:05:15;11.37;;;5.90;;
73023;SDS011;72676;47.526;8.538;2024-03-23T01:07:41;12.53;;;6.17;;
73023;SDS011;72676;47.526;8.538;2024-03-23T01:10:07;9.33;;;4.63;;
73023;SDS011;72676;47.526;8.538;2024-03-23T01:12:32;8.13;;;4.47;;
73023;SDS011;72676;47.526;8.538;2024-03-23T01:14:58;8.90;;;4.10;;
73023;SDS011;72676;47.526;8.538;2024-03-23T01:17:23;5.70;;;3.47;;
73023;SDS011;72676;47.526;8.538;2024-03-23T01:19:49;11.30;;;3.80;;
73023;SDS011;72676;47.526;8.538;2024-03-23T01:22:15;6.53;;;3.53;;
73023;SDS011;72676;47.526;8.538;2024-03-23T01:24:40;6.67;;;3.40;;
73023;SDS011;72676;47.526;8.538;2024-03-23T01:27:06;8.97;;;3.83;;
73023;SDS011;72676;47.526;8.538;2024-03-23T01:29:31;6.47;;;3.40;;
73023;SDS011;72676;47.526;8.538;2024-03-23T01:31:57;9.40;;;3.33;;
73023;SDS011;72676;47.526;8.538;2024-03-23T01:34:22;5.87;;;3.30;;
73023;SDS011;72676;47.526;8.538;2024-03-23T01:36:50;6.73;;;3.83;;
73023;SDS011;72676;47.526;8.538;2024-03-23T01:39:16;8.20;;;4.00;;
73023;SDS011;72676;47.526;8.538;2024-03-23T01:41:41;9.87;;;3.53;;
73023;SDS011;72676;47.526;8.538;2024-03-23T01:44:08;10.60;;;3.87;;
73023;SDS011;72676;47.526;8.538;2024-03-23T01:46:37;5.10;;;3.50;;
73023;SDS011;72676;47.526;8.538;2024-03-23T01:49:03;10.30;;;3.77;;
73023;SDS011;72676;47.526;8.538;2024-03-23T01:51:30;8.43;;;3.23;;
73023;SDS011;72676;47.526;8.538;2024-03-23T01:53:56;4.87;;;3.10;;
73023;SDS011;72676;47.526;8.538;2024-03-23T01:56:22;5.65;;;3.20;;
73023;SDS011;72676;47.526;8.538;2024-03-23T01:58:48;7.47;;;3.50;;
73023;SDS011;72676;47.526;8.538;2024-03-23T02:01:13;6.17;;;3.33;;
73023;SDS011;72676;47.526;8.538;2024-03-23T02:03:39;8.57;;;3.90;;
73023;SDS011;72676;47.526;8.538;2024-03-23T02:06:04;5.97;;;3.50;;
73023;SDS011;72676;47.526;8.538;2024-03-23T02:08:32;5.07;;;3.20;;
73023;SDS011;72676;47.526;8.538;2024-03-23T02:10:58;5.90;;;2.97;;
73023;SDS011;72676;47.526;8.538;2024-03-23T02:13:24;7.67;;;3.20;;
73023;SDS011;72676;47.526;8.538;2024-03-23T02:15:49;5.80;;;3.30;;
73023;SDS011;72676;47.526;8.538;2024-03-23T02:18:15;6.03;;;3.43;;
73023;SDS011;72676;47.526;8.538;2024-03-23T02:20:41;6.13;;;3.30;;
73023;SDS011;72676;47.526;8.538;2024-03-23T02:23:12;8.97;;;3.17;;
73023;SDS011;72676;47.526;8.538;2024-03-23T02:25:38;5.47;;;2.73;;
73023;SDS011;72676;47.526;8.538;2024-03-23T02:28:04;6.33;;;3.40;;
73023;SDS011;72676;47.526;8.538;2024-03-23T02:30:30;9.23;;;3.30;;
73023;SDS011;72676;47.526;8.538;2024-03-23T02:32:55;6.30;;;3.90;;
73023;SDS011;72676;47.526;8.538;2024-03-23T02:35:21;6.93;;;3.47;;
73023;SDS011;72676;47.526;8.538;2024-03-23T02:37:46;6.50;;;3.20;;
73023;SDS011;72676;47.526;8.538;2024-03-23T02:40:14;10.77;;;4.50;;
73023;SDS011;72676;47.526;8.538;2024-03-23T02:42:40;6.30;;;3.00;;
73023;SDS011;72676;47.526;8.538;2024-03-23T02:45:06;12.43;;;3.17;;
73023;SDS011;72676;47.526;8.538;2024-03-23T02:47:32;5.00;;;3.27;;
73023;SDS011;72676;47.526;8.538;2024-03-23T02:49:58;4.83;;;3.00;;
73023;SDS011;72676;47.526;8.538;2024-03-23T02:52:23;6.93;;;3.33;;
73023;SDS011;72676;47.526;8.538;2024-03-23T02:54:49;4.20;;;2.50;;
73023;SDS011;72676;47.526;8.538;2024-03-23T02:57:14;5.73;;;3.00;;
73023;SDS011;72676;47.526;8.538;2024-03-23T02:59:40;6.60;;;3.30;;
73023;SDS011;72676;47.526;8.538;2024-03-23T03:02:06;10.53;;;3.10;;
73023;SDS011;72676;47.526;8.538;2024-03-23T03:04:31;5.67;;;2.70;;
73023;SDS011;72676;47.526;8.538;2024-03-23T03:06:57;5.00;;;2.93;;
73023;SDS011;72676;47.526;8.538;2024-03-23T03:09:23;8.73;;;3.60;;
73023;SDS011;72676;47.526;8.538;2024-03-23T03:11:48;6.20;;;2.80;;
73023;SDS011;72676;47.526;8.538;2024-03-23T03:14:14;6.93;;;3.53;;
73023;SDS011;72676;47.526;8.538;2024-03-23T03:16:39;5.37;;;2.80;;
73023;SDS011;72676;47.526;8.538;2024-03-23T03:19:05;7.27;;;3.43;;
73023;SDS011;72676;47.526;8.538;2024-03-23T03:21:31;5.50;;;2.57;;
73023;SDS011;72676;47.526;8.538;2024-03-23T03:23:57;6.37;;;3.03;;
73023;SDS011;72676;47.526;8.538;2024-03-23T03:26:23;3.47;;;2.40;;
73023;SDS011;72676;47.526;8.538;2024-03-23T03:28:49;6.00;;;3.00;;
73023;SDS011;72676;47.526;8.538;2024-03-23T03:31:15;7.63;;;3.23;;
73023;SDS011;72676;47.526;8.538;2024-03-23T03:33:41;5.47;;;2.63;;
73023;SDS011;72676;47.526;8.538;2024-03-23T03:36:07;5.87;;;3.30;;
73023;SDS011;72676;47.526;8.538;2024-03-23T03:38:33;10.60;;;3.13;;
73023;SDS011;72676;47.526;8.538;2024-03-23T03:41:00;7.37;;;2.93;;
73023;SDS011;72676;47.526;8.538;2024-03-23T03:43:26;6.37;;;2.97;;
73023;SDS011;72676;47.526;8.538;2024-03-23T03:45:52;5.03;;;2.83;;
73023;SDS011;72676;47.526;8.538;2024-03-23T03:48:19;3.33;;;2.20;;
73023;SDS011;72676;47.526;8.538;2024-03-23T03:50:44;5.13;;;2.70;;
73023;SDS011;72676;47.526;8.538;2024-03-23T03:53:10;5.10;;;2.90;;
73023;SDS011;72676;47.526;8.538;2024-03-23T03:55:35;6.60;;;3.63;;
73023;SDS011;72676;47.526;8.538;2024-03-23T03:58:00;4.30;;;2.90;;
73023;SDS011;72676;47.526;8.538;2024-03-23T04:00:26;5.07;;;2.50;;
73023;SDS011;72676;47.526;8.538;2024-03-23T04:02:51;6.70;;;3.03;;
73023;SDS011;72676;47.526;8.538;2024-03-23T04:05:17;6.60;;;3.13;;
73023;SDS011;72676;47.526;8.538;2024-03-23T04:07:44;5.83;;;3.10;;
73023;SDS011;72676;47.526;8.538;2024-03-23T04:10:09;14.80;;;3.30;;
73023;SDS011;72676;47.526;8.538;2024-03-23T04:12:35;5.03;;;2.50;;
73023;SDS011;72676;47.526;8.538;2024-03-23T04:15:00;4.97;;;2.67;;
73023;SDS011;72676;47.526;8.538;2024-03-23T04:17:28;4.47;;;3.10;;
73023;SDS011;72676;47.526;8.538;2024-03-23T04:19:57;6.63;;;2.73;;
73023;SDS011;72676;47.526;8.538;2024-03-23T04:22:23;8.43;;;3.20;;
73023;SDS011;72676;47.526;8.538;2024-03-23T04:24:52;4.70;;;2.83;;
73023;SDS011;72676;47.526;8.538;2024-03-23T04:27:18;5.50;;;2.70;;
73023;SDS011;72676;47.526;8.538;2024-03-23T04:29:47;8.13;;;3.33;;
73023;SDS011;72676;47.526;8.538;2024-03-23T04:32:14;4.13;;;3.00;;
73023;SDS011;72676;47.526;8.538;2024-03-23T04:34:40;4.20;;;3.23;;
73023;SDS011;72676;47.526;8.538;2024-03-23T04:37:05;6.67;;;3.23;;
73023;SDS011;72676;47.526;8.538;2024-03-23T04:39:31;4.70;;;2.70;;
73023;SDS011;72676;47.526;8.538;2024-03-23T04:41:56;5.47;;;3.13;;
73023;SDS011;72676;47.526;8.538;2024-03-23T04:44:22;5.10;;;2.90;;
73023;SDS011;72676;47.526;8.538;2024-03-23T04:46:47;6.67;;;3.07;;
73023;SDS011;72676;47.526;8.538;2024-03-23T04:49:13;10.93;;;3.63;;
73023;SDS011;72676;47.526;8.538;2024-03-23T04:51:38;5.30;;;2.83;;
73023;SDS011;72676;47.526;8.538;2024-03-23T04:54:05;6.90;;;3.10;;
73023;SDS011;72676;47.526;8.538;2024-03-23T04:56:31;9.23;;;3.07;;
73023;SDS011;72676;47.526;8.538;2024-03-23T04:58:57;5.57;;;3.40;;
73023;SDS011;72676;47.526;8.538;2024-03-23T05:01:27;4.07;;;2.90;;
73023;SDS011;72676;47.526;8.538;2024-03-23T05:03:52;6.60;;;3.20;;
73023;SDS011;72676;47.526;8.538;2024-03-23T05:06:18;6.87;;;2.90;;
73023;SDS011;72676;47.526;8.538;2024-03-23T05:08:44;8.67;;;3.33;;
73023;SDS011;72676;47.526;8.538;2024-03-23T05:11:11;8.27;;;2.97;;
73023;SDS011;72676;47.526;8.538;2024-03-23T05:13:36;5.47;;;3.23;;
73023;SDS011;72676;47.526;8.538;2024-03-23T05:16:02;7.83;;;3.13;;
73023;SDS011;72676;47.526;8.538;2024-03-23T05:18:29;5.23;;;2.90;;
73023;SDS011;72676;47.526;8.538;2024-03-23T05:20:56;7.20;;;3.30;;
73023;SDS011;72676;47.526;8.538;2024-03-23T05:23:23;5.60;;;3.43;;
73023;SDS011;72676;47.526;8.538;2024-03-23T05:25:49;8.63;;;3.27;;
73023;SDS011;72676;47.526;8.538;2024-03-23T05:28:14;8.50;;;3.40;;
73023;SDS011;72676;47.526;8.538;2024-03-23T05:30:39;11.03;;;4.00;;
73023;SDS011;72676;47.526;8.538;2024-03-23T05:33:05;5.23;;;2.80;;
73023;SDS011;72676;47.526;8.538;2024-03-23T05:35:31;17.90;;;3.87;;
73023;SDS011;72676;47.526;8.538;2024-03-23T05:37:57;6.83;;;3.43;;
73023;SDS011;72676;47.526;8.538;2024-03-23T05:40:27;6.60;;;3.13;;
73023;SDS011;72676;47.526;8.538;2024-03-23T05:42:53;5.10;;;3.30;;
73023;SDS011;72676;47.526;8.538;2024-03-23T05:45:19;7.53;;;3.97;;
73023;SDS011;72676;47.526;8.538;2024-03-23T05:47:44;8.40;;;4.03;;
73023;SDS011;72676;47.526;8.538;2024-03-23T05:50:10;9.27;;;4.33;;
73023;SDS011;72676;47.526;8.538;2024-03-23T05:52:38;7.93;;;3.90;;
73023;SDS011;72676;47.526;8.538;2024-03-23T05:55:04;8.93;;;5.00;;
73023;SDS011;72676;47.526;8.538;2024-03-23T05:57:30;16.13;;;4.70;;
73023;SDS011;72676;47.526;8.538;2024-03-23T05:59:56;9.33;;;5.57;;
73023;SDS011;72676;47.526;8.538;2024-03-23T06:02:22;8.50;;;5.30;;
73023;SDS011;72676;47.526;8.538;2024-03-23T06:04:47;15.30;;;6.27;;
73023;SDS011;72676;47.526;8.538;2024-03-23T06:07:13;13.50;;;5.97;;
73023;SDS011;72676;47.526;8.538;2024-03-23T06:09:39;11.23;;;5.70;;
73023;SDS011;72676;47.526;8.538;2024-03-23T06:12:08;8.77;;;5.13;;
73023;SDS011;72676;47.526;8.538;2024-03-23T06:14:34;15.07;;;6.27;;
73023;SDS011;72676;47.526;8.538;2024-03-23T06:17:00;12.30;;;6.43;;
73023;SDS011;72676;47.526;8.538;2024-03-23T06:19:26;10.60;;;5.80;;
73023;SDS011;72676;47.526;8.538;2024-03-23T06:21:53;12.20;;;5.97;;
73023;SDS011;72676;47.526;8.538;2024-03-23T06:24:20;10.63;;;5.93;;
73023;SDS011;72676;47.526;8.538;2024-03-23T06:26:46;11.00;;;6.07;;
73023;SDS011;72676;47.526;8.538;2024-03-23T06:29:12;10.73;;;5.37;;
73023;SDS011;72676;47.526;8.538;2024-03-23T06:31:37;9.70;;;5.40;;
73023;SDS011;72676;47.526;8.538;2024-03-23T06:34:03;13.50;;;4.77;;
73023;SDS011;72676;47.526;8.538;2024-03-23T06:36:28;10.10;;;4.77;;
73023;SDS011;72676;47.526;8.538;2024-03-23T06:38:55;12.77;;;6.23;;
73023;SDS011;72676;47.526;8.538;2024-03-23T06:41:21;12.63;;;5.70;;
73023;SDS011;72676;47.526;8.538;2024-03-23T06:43:47;10.33;;;5.67;;
73023;SDS011;72676;47.526;8.538;2024-03-23T06:46:12;9.07;;;5.30;;
73023;SDS011;72676;47.526;8.538;2024-03-23T06:48:38;13.67;;;6.23;;
73023;SDS011;72676;47.526;8.538;2024-03-23T06:51:03;10.37;;;5.93;;
73023;SDS011;72676;47.526;8.538;2024-03-23T06:53:29;12.90;;;5.90;;
73023;SDS011;72676;47.526;8.538;2024-03-23T06:55:54;13.10;;;5.53;;
73023;SDS011;72676;47.526;8.538;2024-03-23T06:58:21;11.83;;;4.70;;
73023;SDS011;72676;47.526;8.538;2024-03-23T07:00:50;12.70;;;5.37;;
73023;SDS011;72676;47.526;8.538;2024-03-23T07:03:19;10.83;;;4.10;;
73023;SDS011;72676;47.526;8.538;2024-03-23T07:05:46;9.53;;;5.20;;
73023;SDS011;72676;47.526;8.538;2024-03-23T07:08:12;9.70;;;4.77;;
73023;SDS011;72676;47.526;8.538;2024-03-23T07:10:41;9.53;;;4.23;;
73023;SDS011;72676;47.526;8.538;2024-03-23T07:13:06;12.67;;;5.03;;
73023;SDS011;72676;47.526;8.538;2024-03-23T07:15:32;7.20;;;4.13;;
73023;SDS011;72676;47.526;8.538;2024-03-23T07:17:58;9.50;;;4.70;;
73023;SDS011;72676;47.526;8.538;2024-03-23T07:20:24;8.03;;;4.63;;
73023;SDS011;72676;47.526;8.538;2024-03-23T07:22:49;12.60;;;5.27;;
73023;SDS011;72676;47.526;8.538;2024-03-23T07:25:15;11.50;;;5.77;;
73023;SDS011;72676;47.526;8.538;2024-03-23T07:27:40;14.83;;;5.70;;
73023;SDS011;72676;47.526;8.538;2024-03-23T07:30:06;11.13;;;5.17;;
73023;SDS011;72676;47.526;8.538;2024-03-23T07:32:32;10.73;;;5.77;;
73023;SDS011;72676;47.526;8.538;2024-03-23T07:34:57;10.13;;;5.27;;
73023;SDS011;72676;47.526;8.538;2024-03-23T07:37:23;10.20;;;5.67;;
73023;SDS011;72676;47.526;8.538;2024-03-23T07:39:48;10.10;;;4.57;;
73023;SDS011;72676;47.526;8.538;2024-03-23T07:42:14;10.23;;;5.30;;
73023;SDS011;72676;47.526;8.538;2024-03-23T07:44:39;11.53;;;5.87;;
73023;SDS011;72676;47.526;8.538;2024-03-23T07:47:05;9.53;;;5.07;;
73023;SDS011;72676;47.526;8.538;2024-03-23T07:49:31;11.00;;;4.27;;
73023;SDS011;72676;47.526;8.538;2024-03-23T07:51:56;9.60;;;4.37;;
73023;SDS011;72676;47.526;8.538;2024-03-23T07:54:22;6.57;;;3.63;;
73023;SDS011;72676;47.526;8.538;2024-03-23T07:56:47;13.90;;;3.10;;
73023;SDS011;72676;47.526;8.538;2024-03-23T07:59:13;5.30;;;2.77;;
73023;SDS011;72676;47.526;8.538;2024-03-23T08:01:38;4.47;;;1.93;;
73023;SDS011;72676;47.526;8.538;2024-03-23T08:04:05;5.87;;;2.73;;
73023;SDS011;72676;47.526;8.538;2024-03-23T08:06:31;3.60;;;1.33;;
73023;SDS011;72676;47.526;8.538;2024-03-23T08:08:57;4.17;;;1.40;;
73023;SDS011;72676;47.526;8.538;2024-03-23T08:11:29;4.20;;;1.30;;
73023;SDS011;72676;47.526;8.538;2024-03-23T08:13:56;2.53;;;1.10;;
73023;SDS011;72676;47.526;8.538;2024-03-23T08:16:22;2.47;;;1.00;;
73023;SDS011;72676;47.526;8.538;2024-03-23T08:18:47;3.70;;;1.20;;
73023;SDS011;72676;47.526;8.538;2024-03-23T08:21:13;2.50;;;1.10;;
73023;SDS011;72676;47.526;8.538;2024-03-23T08:23:39;6.53;;;0.90;;
73023;SDS011;72676;47.526;8.538;2024-03-23T08:26:05;1.80;;;0.80;;
73023;SDS011;72676;47.526;8.538;2024-03-23T08:28:35;6.83;;;0.90;;
73023;SDS011;72676;47.526;8.538;2024-03-23T08:31:01;3.40;;;0.70;;
73023;SDS011;72676;47.526;8.538;2024-03-23T08:33:28;6.47;;;0.80;;
73023;SDS011;72676;47.526;8.538;2024-03-23T08:35:59;3.37;;;0.90;;
73023;SDS011;72676;47.526;8.538;2024-03-23T08:38:29;2.17;;;0.90;;
73023;SDS011;72676;47.526;8.538;2024-03-23T08:41:01;2.73;;;0.80;;
73023;SDS011;72676;47.526;8.538;2024-03-23T08:43:28;2.33;;;0.97;;
73023;SDS011;72676;47.526;8.538;2024-03-23T08:46:02;2.03;;;0.70;;
73023;SDS011;72676;47.526;8.538;2024-03-23T08:48:29;4.10;;;0.90;;
73023;SDS011;72676;47.526;8.538;2024-03-23T08:51:01;4.40;;;1.10;;
73023;SDS011;72676;47.526;8.538;2024-03-23T08:53:28;3.33;;;1.20;;
73023;SDS011;72676;47.526;8.538;2024-03-23T08:55:55;2.30;;;0.87;;
73023;SDS011;72676;47.526;8.538;2024-03-23T08:58:24;2.70;;;0.83;;
73023;SDS011;72676;47.526;8.538;2024-03-23T09:00:51;2.80;;;0.87;;
73023;SDS011;72676;47.526;8.538;2024-03-23T09:03:17;3.20;;;1.10;;
73023;SDS011;72676;47.526;8.538;2024-03-23T09:05:42;4.20;;;1.00;;
73023;SDS011;72676;47.526;8.538;2024-03-23T09:08:08;4.47;;;1.27;;
73023;SDS011;72676;47.526;8.538;2024-03-23T09:10:40;4.77;;;1.40;;
73023;SDS011;72676;47.526;8.538;2024-03-23T09:13:07;6.20;;;1.40;;
73023;SDS011;72676;47.526;8.538;2024-03-23T09:15:36;2.83;;;1.37;;
73023;SDS011;72676;47.526;8.538;2024-03-23T09:18:03;8.00;;;1.73;;
73023;SDS011;72676;47.526;8.538;2024-03-23T09:20:32;7.97;;;1.50;;
73023;SDS011;72676;47.526;8.538;2024-03-23T09:22:58;6.33;;;1.83;;
73023;SDS011;72676;47.526;8.538;2024-03-23T09:25:24;11.17;;;2.10;;
73023;SDS011;72676;47.526;8.538;2024-03-23T09:27:50;8.07;;;2.23;;
73023;SDS011;72676;47.526;8.538;2024-03-23T09:30:16;6.73;;;2.03;;
73023;SDS011;72676;47.526;8.538;2024-03-23T09:32:43;12.90;;;2.10;;
73023;SDS011;72676;47.526;8.538;2024-03-23T09:35:09;11.70;;;2.23;;
73023;SDS011;72676;47.526;8.538;2024-03-23T09:37:35;11.20;;;2.30;;
73023;SDS011;72676;47.526;8.538;2024-03-23T09:40:01;5.13;;;2.13;;
73023;SDS011;72676;47.526;8.538;2024-03-23T09:42:27;12.50;;;2.83;;
73023;SDS011;72676;47.526;8.538;2024-03-23T09:44:53;15.20;;;2.20;;
73023;SDS011;72676;47.526;8.538;2024-03-23T09:47:19;9.27;;;2.07;;
73023;SDS011;72676;47.526;8.538;2024-03-23T09:49:44;17.37;;;2.20;;
73023;SDS011;72676;47.526;8.538;2024-03-23T09:52:10;7.50;;;1.77;;
73023;SDS011;72676;47.526;8.538;2024-03-23T09:54:36;9.97;;;2.40;;
73023;SDS011;72676;47.526;8.538;2024-03-23T09:57:01;12.60;;;2.90;;
73023;SDS011;72676;47.526;8.538;2024-03-23T09:59:27;13.00;;;2.57;;
73023;SDS011;72676;47.526;8.538;2024-03-23T10:01:54;11.80;;;2.57;;
73023;SDS011;72676;47.526;8.538;2024-03-23T10:04:36;10.40;;;2.27;;
73023;SDS011;72676;47.526;8.538;2024-03-23T10:09:38;5.90;;;2.13;;
73023;SDS011;72676;47.526;8.538;2024-03-23T10:12:07;7.43;;;1.97;;
73023;SDS011;72676;47.526;8.538;2024-03-23T10:14:34;10.40;;;2.60;;
73023;SDS011;72676;47.526;8.538;2024-03-23T10:17:21;6.03;;;1.90;;
73023;SDS011;72676;47.526;8.538;2024-03-23T10:19:50;5.70;;;2.37;;
73023;SDS011;72676;47.526;8.538;2024-03-23T10:22:20;5.90;;;2.07;;
73023;SDS011;72676;47.526;8.538;2024-03-23T10:24:47;14.13;;;2.53;;
73023;SDS011;72676;47.526;8.538;2024-03-23T10:27:17;12.37;;;2.60;;
73023;SDS011;72676;47.526;8.538;2024-03-23T10:29:45;8.50;;;2.13;;
73023;SDS011;72676;47.526;8.538;2024-03-23T10:32:12;9.00;;;2.10;;
73023;SDS011;72676;47.526;8.538;2024-03-23T10:34:39;8.90;;;2.30;;
73023;SDS011;72676;47.526;8.538;2024-03-23T10:37:05;11.13;;;2.53;;
73023;SDS011;72676;47.526;8.538;2024-03-23T10:39:35;10.87;;;2.37;;
73023;SDS011;72676;47.526;8.538;2024-03-23T10:42:05;9.40;;;3.20;;
73023;SDS011;72676;47.526;8.538;2024-03-23T10:44:35;6.53;;;2.33;;
73023;SDS011;72676;47.526;8.538;2024-03-23T10:47:01;9.83;;;2.20;;
73023;SDS011;72676;47.526;8.538;2024-03-23T10:49:31;7.97;;;2.20;;
73023;SDS011;72676;47.526;8.538;2024-03-23T10:51:59;8.73;;;2.60;;
73023;SDS011;72676;47.526;8.538;2024-03-23T10:54:25;11.10;;;2.63;;
73023;SDS011;72676;47.526;8.538;2024-03-23T10:56:54;9.80;;;2.90;;
73023;SDS011;72676;47.526;8.538;2024-03-23T10:59:25;11.20;;;2.30;;
73023;SDS011;72676;47.526;8.538;2024-03-23T11:01:58;6.27;;;2.27;;
73023;SDS011;72676;47.526;8.538;2024-03-23T11:04:37;5.97;;;1.80;;
73023;SDS011;72676;47.526;8.538;2024-03-23T11:09:51;6.63;;;1.90;;
73023;SDS011;72676;47.526;8.538;2024-03-23T11:14:46;13.67;;;2.20;;
73023;SDS011;72676;47.526;8.538;2024-03-23T11:17:17;8.90;;;2.10;;
73023;SDS011;72676;47.526;8.538;2024-03-23T11:27:37;5.27;;;1.73;;
73023;SDS011;72676;47.526;8.538;2024-03-23T11:30:12;6.30;;;2.07;;
73023;SDS011;72676;47.526;8.538;2024-03-23T11:32:45;15.20;;;2.67;;
73023;SDS011;72676;47.526;8.538;2024-03-23T11:35:28;10.00;;;2.30;;
73023;SDS011;72676;47.526;8.538;2024-03-23T11:40:37;11.17;;;1.63;;
73023;SDS011;72676;47.526;8.538;2024-03-23T11:43:06;8.33;;;1.83;;
73023;SDS011;72676;47.526;8.538;2024-03-23T11:45:43;5.20;;;1.60;;
73023;SDS011;72676;47.526;8.538;2024-03-23T11:48:11;8.80;;;1.40;;
73023;SDS011;72676;47.526;8.538;2024-03-23T11:50:44;7.20;;;1.77;;
73023;SDS011;72676;47.526;8.538;2024-03-23T11:53:17;7.53;;;1.67;;
73023;SDS011;72676;47.526;8.538;2024-03-23T11:55:48;8.60;;;1.77;;
73023;SDS011;72676;47.526;8.538;2024-03-23T11:58:18;6.17;;;1.43;;
73023;SDS011;72676;47.526;8.538;2024-03-23T12:03:16;7.50;;;1.63;;
73023;SDS011;72676;47.526;8.538;2024-03-23T12:05:47;9.00;;;2.23;;
73023;SDS011;72676;47.526;8.538;2024-03-23T12:08:17;5.00;;;1.70;;
73023;SDS011;72676;47.526;8.538;2024-03-23T12:10:44;9.63;;;2.57;;
73023;SDS011;72676;47.526;8.538;2024-03-23T12:13:14;2.90;;;1.10;;
73023;SDS011;72676;47.526;8.538;2024-03-23T12:15:40;4.07;;;1.40;;
73023;SDS011;72676;47.526;8.538;2024-03-23T12:18:07;10.13;;;1.43;;
73023;SDS011;72676;47.526;8.538;2024-03-23T12:20:33;2.90;;;1.30;;
73023;SDS011;72676;47.526;8.538;2024-03-23T12:23:05;3.43;;;1.20;;
73023;SDS011;72676;47.526;8.538;2024-03-23T12:25:35;3.13;;;1.40;;
73023;SDS011;72676;47.526;8.538;2024-03-23T12:28:01;6.40;;;1.93;;
73023;SDS011;72676;47.526;8.538;2024-03-23T12:30:27;5.13;;;1.60;;
73023;SDS011;72676;47.526;8.538;2024-03-23T12:32:52;10.03;;;1.90;;
73023;SDS011;72676;47.526;8.538;2024-03-23T12:35:18;9.40;;;1.93;;
73023;SDS011;72676;47.526;8.538;2024-03-23T12:37:43;11.03;;;2.10;;
73023;SDS011;72676;47.526;8.538;2024-03-23T12:40:09;9.63;;;2.17;;
73023;SDS011;72676;47.526;8.538;2024-03-23T12:42:35;6.70;;;1.50;;
73023;SDS011;72676;47.526;8.538;2024-03-23T12:45:01;9.40;;;1.60;;
73023;SDS011;72676;47.526;8.538;2024-03-23T12:47:27;12.03;;;1.30;;
73023;SDS011;72676;47.526;8.538;2024-03-23T12:49:52;18.13;;;2.17;;
73023;SDS011;72676;47.526;8.538;2024-03-23T12:52:18;8.27;;;1.87;;
73023;SDS011;72676;47.526;8.538;2024-03-23T12:54:45;22.87;;;2.10;;
73023;SDS011;72676;47.526;8.538;2024-03-23T12:57:10;12.70;;;2.00;;
73023;SDS011;72676;47.526;8.538;2024-03-23T12:59:36;5.83;;;1.63;;
73023;SDS011;72676;47.526;8.538;2024-03-23T13:02:01;8.27;;;2.37;;
73023;SDS011;72676;47.526;8.538;2024-03-23T13:04:27;6.30;;;1.73;;
73023;SDS011;72676;47.526;8.538;2024-03-23T13:06:52;12.00;;;2.20;;
73023;SDS011;72676;47.526;8.538;2024-03-23T13:09:18;7.40;;;2.20;;
73023;SDS011;72676;47.526;8.538;2024-03-23T13:11:43;10.97;;;1.83;;
73023;SDS011;72676;47.526;8.538;2024-03-23T13:14:09;8.90;;;2.40;;
73023;SDS011;72676;47.526;8.538;2024-03-23T13:16:35;8.00;;;2.10;;
73023;SDS011;72676;47.526;8.538;2024-03-23T13:19:00;8.60;;;1.70;;
73023;SDS011;72676;47.526;8.538;2024-03-23T13:21:26;7.63;;;2.13;;
73023;SDS011;72676;47.526;8.538;2024-03-23T13:23:52;10.60;;;2.00;;
73023;SDS011;72676;47.526;8.538;2024-03-23T13:26:17;10.60;;;2.70;;
73023;SDS011;72676;47.526;8.538;2024-03-23T13:28:43;12.63;;;2.43;;
73023;SDS011;72676;47.526;8.538;2024-03-23T13:31:09;10.10;;;1.57;;
73023;SDS011;72676;47.526;8.538;2024-03-23T13:33:35;6.20;;;2.40;;
73023;SDS011;72676;47.526;8.538;2024-03-23T13:36:01;7.63;;;1.80;;
73023;SDS011;72676;47.526;8.538;2024-03-23T13:38:27;11.37;;;1.80;;
73023;SDS011;72676;47.526;8.538;2024-03-23T13:40:54;5.40;;;1.67;;
73023;SDS011;72676;47.526;8.538;2024-03-23T13:43:23;4.77;;;1.80;;
73023;SDS011;72676;47.526;8.538;2024-03-23T13:45:55;2.90;;;1.10;;
73023;SDS011;72676;47.526;8.538;2024-03-23T13:48:23;7.10;;;1.30;;
73023;SDS011;72676;47.526;8.538;2024-03-23T13:50:59;8.53;;;1.57;;
73023;SDS011;72676;47.526;8.538;2024-03-23T13:53:25;3.70;;;1.50;;
73023;SDS011;72676;47.526;8.538;2024-03-23T13:55:51;5.10;;;1.50;;
73023;SDS011;72676;47.526;8.538;2024-03-23T13:58:16;5.80;;;1.50;;
73023;SDS011;72676;47.526;8.538;2024-03-23T14:00:42;3.17;;;1.20;;
73023;SDS011;72676;47.526;8.538;2024-03-23T14:03:08;8.53;;;1.30;;
73023;SDS011;72676;47.526;8.538;2024-03-23T14:05:34;4.17;;;1.80;;
73023;SDS011;72676;47.526;8.538;2024-03-23T14:08:00;10.53;;;1.73;;
73023;SDS011;72676;47.526;8.538;2024-03-23T14:10:26;3.27;;;1.40;;
73023;SDS011;72676;47.526;8.538;2024-03-23T14:12:52;8.73;;;1.40;;
73023;SDS011;72676;47.526;8.538;2024-03-23T14:15:18;6.83;;;1.50;;
73023;SDS011;72676;47.526;8.538;2024-03-23T14:17:43;10.00;;;1.77;;
73023;SDS011;72676;47.526;8.538;2024-03-23T14:20:09;10.87;;;2.23;;
73023;SDS011;72676;47.526;8.538;2024-03-23T14:22:36;7.83;;;1.80;;
73023;SDS011;72676;47.526;8.538;2024-03-23T14:25:02;4.83;;;1.50;;
73023;SDS011;72676;47.526;8.538;2024-03-23T14:27:28;7.30;;;1.70;;
73023;SDS011;72676;47.526;8.538;2024-03-23T14:29:54;8.67;;;1.73;;
73023;SDS011;72676;47.526;8.538;2024-03-23T14:32:19;11.13;;;2.00;;
73023;SDS011;72676;47.526;8.538;2024-03-23T14:34:45;4.73;;;1.40;;
73023;SDS011;72676;47.526;8.538;2024-03-23T14:37:11;6.50;;;1.73;;
73023;SDS011;72676;47.526;8.538;2024-03-23T14:39:37;4.50;;;1.37;;
73023;SDS011;72676;47.526;8.538;2024-03-23T14:42:06;6.50;;;1.80;;
73023;SDS011;72676;47.526;8.538;2024-03-23T14:44:34;7.47;;;0.90;;
73023;SDS011;72676;47.526;8.538;2024-03-23T14:47:00;5.37;;;1.10;;
73023;SDS011;72676;47.526;8.538;2024-03-23T14:49:25;2.40;;;1.00;;
73023;SDS011;72676;47.526;8.538;2024-03-23T14:51:51;4.10;;;1.40;;
73023;SDS011;72676;47.526;8.538;2024-03-23T14:54:16;7.77;;;1.50;;
73023;SDS011;72676;47.526;8.538;2024-03-23T14:56:42;4.40;;;1.40;;
73023;SDS011;72676;47.526;8.538;2024-03-23T14:59:07;5.00;;;1.33;;
73023;SDS011;72676;47.526;8.538;2024-03-23T15:01:33;6.47;;;1.70;;
73023;SDS011;72676;47.526;8.538;2024-03-23T15:03:59;7.37;;;1.43;;
73023;SDS011;72676;47.526;8.538;2024-03-23T15:06:25;5.03;;;1.13;;
73023;SDS011;72676;47.526;8.538;2024-03-23T15:08:50;6.53;;;1.60;;
73023;SDS011;72676;47.526;8.538;2024-03-23T15:11:16;11.47;;;1.53;;
73023;SDS011;72676;47.526;8.538;2024-03-23T15:13:44;6.60;;;1.27;;
73023;SDS011;72676;47.526;8.538;2024-03-23T15:16:10;4.73;;;2.00;;
73023;SDS011;72676;47.526;8.538;2024-03-23T15:18:35;4.67;;;1.50;;
73023;SDS011;72676;47.526;8.538;2024-03-23T15:21:02;8.27;;;1.80;;
73023;SDS011;72676;47.526;8.538;2024-03-23T15:23:32;4.00;;;1.30;;
73023;SDS011;72676;47.526;8.538;2024-03-23T15:25:58;3.77;;;1.43;;
73023;SDS011;72676;47.526;8.538;2024-03-23T15:28:26;11.83;;;1.47;;
73023;SDS011;72676;47.526;8.538;2024-03-23T15:30:53;4.33;;;1.63;;
73023;SDS011;72676;47.526;8.538;2024-03-23T15:33:18;7.03;;;1.40;;
73023;SDS011;72676;47.526;8.538;2024-03-23T15:35:44;4.37;;;1.33;;
73023;SDS011;72676;47.526;8.538;2024-03-23T15:38:10;3.73;;;1.00;;
73023;SDS011;72676;47.526;8.538;2024-03-23T15:40:35;5.57;;;1.40;;
73023;SDS011;72676;47.526;8.538;2024-03-23T15:43:01;4.63;;;1.50;;
73023;SDS011;72676;47.526;8.538;2024-03-23T15:45:27;6.60;;;1.57;;
73023;SDS011;72676;47.526;8.538;2024-03-23T15:47:52;4.57;;;1.97;;
73023;SDS011;72676;47.526;8.538;2024-03-23T15:50:18;2.67;;;1.00;;
73023;SDS011;72676;47.526;8.538;2024-03-23T15:52:43;4.60;;;1.33;;
73023;SDS011;72676;47.526;8.538;2024-03-23T15:55:09;3.20;;;1.20;;